Time;durP1;ratioP1;P1;durP2;ratioP2;P2;SDS_P1;SDS_P2;PMS_P1;PMS_P2;Temp;Humidity;BMP_temperature;BMP_pressure;BME280_temperature;BME280_humidity;BME280_pressure;Samples;Min_cycle;Max_cycle;Signal;HPM_P1;HPM_P2
2022/01/11 00:00:25;;;;;;;32.35;14.05;;;102.70;2227.20;;;;;;5094317;28;20024;-78
2022/01/11 00:02:53;;;;;;;31.42;17.23;;;102.70;2227.20;;;;;;5095433;28;20464;-78
2022/01/11 00:05:36;;;;;;;30.25;17.13;;;102.50;2227.20;;;;;;5094140;28;20484;-79
2022/01/11 00:08:04;;;;;;;31.15;16.85;;;102.50;2227.20;;;;;;5093615;28;20029;-75
2022/01/11 00:10:34;;;;;;;34.28;16.83;;;102.60;2227.20;;;;;;5094147;28;20149;-75
2022/01/11 00:13:00;;;;;;;29.52;15.13;;;102.70;2227.20;;;;;;5095263;28;20372;-78
2022/01/11 00:15:27;;;;;;;36.47;17.17;;;102.60;2227.20;;;;;;5094173;28;20613;-76
2022/01/11 00:17:53;;;;;;;32.92;15.85;;;102.50;2227.20;;;;;;5095213;28;20016;-77
2022/01/11 00:20:20;;;;;;;32.65;15.13;;;77.70;2227.20;;;;;;5094148;28;20055;-79
2022/01/11 00:25:26;;;;;;;36.65;17.38;;;77.50;2227.20;;;;;;5095172;28;20032;-75
2022/01/11 00:27:52;;;;;;;34.53;17.65;;;77.70;2227.20;;;;;;5093795;28;20036;-78
2022/01/11 00:30:18;;;;;;;32.17;17.20;;;77.70;2227.20;;;;;;5094041;28;20024;-78
2022/01/11 00:32:49;;;;;;;37.45;19.45;;;102.80;2227.20;;;;;;5093624;28;20502;-78
2022/01/11 00:35:17;;;;;;;49.45;23.55;;;102.50;2227.20;;;;;;5093742;28;20024;-78
2022/01/11 00:37:44;;;;;;;39.70;19.63;;;102.50;2227.20;;;;;;5094648;28;20020;-77
2022/01/11 00:40:11;;;;;;;37.33;18.05;;;77.60;2227.20;;;;;;5094959;28;20094;-78
2022/01/11 00:42:37;;;;;;;34.38;17.20;;;77.50;2227.20;;;;;;5094757;28;20020;-76
2022/01/11 00:45:04;;;;;;;30.08;13.70;;;77.30;2227.20;;;;;;5093344;28;20070;-78
2022/01/11 00:47:30;;;;;;;28.65;15.80;;;77.20;2227.20;;;;;;5094348;28;20039;-77
2022/01/11 00:49:56;;;;;;;33.15;16.20;;;77.20;2227.20;;;;;;5094415;28;20520;-78
2022/01/11 00:52:22;;;;;;;;;;;77.10;2227.20;;;;;;5094995;28;20036;-78
2022/01/11 00:54:48;;;;;;;31.92;15.82;;;77.00;2227.20;;;;;;5092123;28;19908;-78
2022/01/11 00:57:13;;;;;;;;;;;77.00;2227.20;;;;;;5095076;28;20045;-76
2022/01/11 00:59:40;;;;;;;29.80;13.55;;;77.10;2227.20;;;;;;5093559;28;19904;-78
2022/01/11 01:02:07;;;;;;;30.08;13.52;;;76.90;2227.20;;;;;;5094341;28;20093;-76
2022/01/11 01:04:33;;;;;;;31.35;14.85;;;76.80;2227.20;;;;;;5094330;28;20024;-78
2022/01/11 01:06:59;;;;;;;27.52;13.15;;;77.00;2227.20;;;;;;5091854;28;20101;-75
2022/01/11 01:09:30;;;;;;;25.67;12.50;;;77.10;2227.20;;;;;;5094601;28;20552;-78
2022/01/11 01:11:56;;;;;;;28.13;12.57;;;77.00;2227.20;;;;;;5093353;28;20032;-79
2022/01/11 01:14:21;;;;;;;27.17;13.57;;;76.90;2227.20;;;;;;5094665;28;20493;-79
2022/01/11 01:16:47;;;;;;;;;;;76.80;2227.20;;;;;;5094614;28;20027;-77
2022/01/11 01:19:13;;;;;;;22.83;10.60;;;76.80;2227.20;;;;;;5094153;28;19904;-78
2022/01/11 01:21:39;;;;;;;;;;;76.80;2227.20;;;;;;5094615;28;20020;-77
2022/01/11 01:24:07;;;;;;;23.08;11.43;;;77.00;2227.20;;;;;;5093062;28;19912;-77
2022/01/11 01:26:33;;;;;;;24.08;11.85;;;76.90;2227.20;;;;;;5094133;28;20095;-78
2022/01/11 01:29:00;;;;;;;21.55;12.40;;;76.90;2227.20;;;;;;5093933;28;20047;-78
2022/01/11 01:31:27;;;;;;;22.73;10.63;;;76.80;2227.20;;;;;;5092629;28;20024;-78
2022/01/11 01:33:54;;;;;;;21.98;9.75;;;76.90;2227.20;;;;;;5093026;28;20024;-78
2022/01/11 01:36:21;;;;;;;25.38;12.20;;;76.90;2227.20;;;;;;5093764;28;20035;-79
2022/01/11 01:38:47;;;;;;;22.67;12.40;;;77.00;2227.20;;;;;;5092253;28;20048;-78
2022/01/11 01:41:16;;;;;;;24.95;11.63;;;76.90;2227.20;;;;;;5093019;28;20408;-78
2022/01/11 01:43:44;;;;;;;25.02;11.90;;;76.90;2227.20;;;;;;5093538;28;20020;-78
2022/01/11 01:46:10;;;;;;;24.38;11.45;;;76.90;2227.20;;;;;;5092407;28;20024;-75
2022/01/11 01:48:36;;;;;;;;;;;76.80;2227.20;;;;;;5092744;28;20024;-78
2022/01/11 01:51:06;;;;;;;25.23;11.68;;;76.80;2227.20;;;;;;5092934;28;19930;-78
2022/01/11 01:53:35;;;;;;;29.02;12.27;;;52.10;2227.20;;;;;;5088263;28;20499;-78
2022/01/11 01:56:01;;;;;;;37.25;14.25;;;52.10;2227.20;;;;;;5093679;28;20023;-76
2022/01/11 01:58:29;;;;;;;46.25;18.10;;;76.80;2227.20;;;;;;5092469;28;20027;-79
2022/01/11 02:01:02;;;;;;;36.25;16.38;;;52.00;2227.20;;;;;;5091910;28;20063;-75
2022/01/11 02:03:30;;;;;;;49.05;21.42;;;51.90;2227.20;;;;;;5092146;28;20016;-79
2022/01/11 02:05:57;;;;;;;43.58;20.30;;;51.90;2227.20;;;;;;5093397;28;20050;-75
2022/01/11 02:08:24;;;;;;;55.95;20.95;;;52.10;2227.20;;;;;;5093492;28;20032;-75
2022/01/11 02:10:50;;;;;;;44.78;19.67;;;52.10;2227.20;;;;;;5092102;28;20030;-77
2022/01/11 02:13:16;;;;;;;50.38;18.75;;;52.10;2227.20;;;;;;5093388;28;20043;-75
2022/01/11 02:15:42;;;;;;;41.05;17.45;;;52.10;2227.20;;;;;;5093471;28;20024;-78
2022/01/11 02:18:16;;;;;;;;;;;51.80;2227.20;;;;;;5092174;28;20024;-75
2022/01/11 02:20:45;;;;;;;38.10;14.15;;;51.90;2227.20;;;;;;5092171;28;20336;-78
2022/01/11 02:23:11;;;;;;;31.27;12.45;;;51.80;2227.20;;;;;;5093226;28;20021;-76
2022/01/11 02:25:38;;;;;;;26.75;13.88;;;51.80;2227.20;;;;;;5093471;28;20085;-75
2022/01/11 02:28:06;;;;;;;27.40;11.88;;;51.80;2227.20;;;;;;5093098;28;20036;-75
2022/01/11 02:30:33;;;;;;;30.48;12.82;;;52.00;2227.20;;;;;;5091610;28;20020;-79
2022/01/11 02:33:02;;;;;;;25.13;12.27;;;52.00;2227.20;;;;;;5089795;28;20024;-75
2022/01/11 02:35:28;;;;;;;23.00;9.55;;;51.80;2227.20;;;;;;5093026;28;20023;-77
2022/01/11 02:37:53;;;;;;;;;;;51.80;2227.20;;;;;;5092322;28;20384;-77
2022/01/11 02:40:21;;;;;;;22.58;10.35;;;51.80;2227.20;;;;;;5093001;28;19911;-78
2022/01/11 02:42:46;;;;;;;23.50;10.70;;;51.70;2227.20;;;;;;5091644;28;20028;-76
2022/01/11 02:45:13;;;;;;;;;;;51.50;2227.20;;;;;;5093151;28;20490;-78
2022/01/11 02:47:39;;;;;;;25.70;11.95;;;51.50;2227.20;;;;;;5090586;28;20355;-74
2022/01/11 02:50:05;;;;;;;;;;;51.70;2227.20;;;;;;5093415;28;20027;-75
2022/01/11 02:52:30;;;;;;;25.27;10.75;;;51.70;2227.20;;;;;;5091387;28;19904;-77
2022/01/11 02:54:56;;;;;;;;;;;51.50;2227.20;;;;;;5092061;28;20075;-78
2022/01/11 02:57:22;;;;;;;23.73;10.90;;;51.30;2227.20;;;;;;5092723;28;19999;-78
2022/01/11 02:59:47;;;;;;;;;;;51.40;2227.20;;;;;;5093375;28;20020;-78
2022/01/11 03:02:13;;;;;;;21.75;10.73;;;51.50;2227.20;;;;;;5092724;28;19916;-78
2022/01/11 03:04:39;;;;;;;;;;;51.60;2227.20;;;;;;5090906;28;20012;-76
2022/01/11 03:07:05;;;;;;;20.92;9.98;;;51.30;2227.20;;;;;;5091224;28;19916;-77
2022/01/11 03:09:41;;;;;;;28.83;10.40;;;51.60;2227.20;;;;;;5091495;28;20487;-76
2022/01/11 03:12:07;;;;;;;21.42;9.75;;;51.30;2227.20;;;;;;5090374;28;20032;-78
2022/01/11 03:14:33;;;;;;;21.23;10.55;;;51.30;2227.20;;;;;;5092637;28;20055;-78
2022/01/11 03:16:59;;;;;;;;;;;51.40;2227.20;;;;;;5090946;28;20040;-74
2022/01/11 03:19:24;;;;;;;24.67;10.55;;;51.40;2227.20;;;;;;5092804;28;19911;-76
2022/01/11 03:21:50;;;;;;;;;;;51.50;2227.20;;;;;;5093198;28;20073;-78
2022/01/11 03:24:16;;;;;;;24.77;10.65;;;51.40;2227.20;;;;;;5092730;28;19904;-74
2022/01/11 03:26:41;;;;;;;;;;;51.30;2227.20;;;;;;5093057;28;20036;-78
2022/01/11 03:29:07;;;;;;;25.05;11.73;;;51.30;2227.20;;;;;;5091426;28;19946;-74
2022/01/11 03:31:32;;;;;;;;;;;51.30;2227.20;;;;;;5094405;28;20012;-78
2022/01/11 03:33:58;;;;;;;28.05;12.00;;;51.40;2227.20;;;;;;5096128;28;20317;-75
2022/01/11 03:36:24;;;;;;;;;;;51.20;2227.20;;;;;;5095018;28;20027;-75
2022/01/11 03:38:49;;;;;;;25.15;11.20;;;51.40;2227.20;;;;;;5094885;28;20379;-74
2022/01/11 03:41:15;;;;;;;;;;;51.50;2227.20;;;;;;5096377;28;20016;-76
2022/01/11 03:43:41;;;;;;;31.05;11.00;;;51.50;2227.20;;;;;;5095975;28;20279;-77
2022/01/11 03:46:07;;;;;;;;;;;51.30;2227.20;;;;;;5096357;28;20012;-75
2022/01/11 03:48:32;;;;;;;27.60;12.02;;;51.50;2227.20;;;;;;5094505;28;19916;-77
2022/01/11 03:50:58;;;;;;;31.50;13.05;;;51.60;2227.20;;;;;;5094381;28;20353;-75
2022/01/11 03:53:28;;;;;;;;;;;51.40;2227.20;;;;;;5096310;28;20386;-75
2022/01/11 03:58:21;;;;;;;26.48;11.63;;;51.30;2227.20;;;;;;5095688;28;20020;-74
2022/01/11 04:00:47;;;;;;;20.95;10.18;;;51.40;2227.20;;;;;;5095795;28;20103;-75
2022/01/11 04:03:13;;;;;;;21.40;10.00;;;51.50;2227.20;;;;;;5095333;28;20020;-77
2022/01/11 04:05:42;;;;;;;19.27;9.98;;;51.60;2227.20;;;;;;5094008;28;20115;-75
2022/01/11 04:08:08;;;;;;;22.20;9.88;;;51.60;2227.20;;;;;;5095318;28;20032;-75
2022/01/11 04:10:33;;;;;;;22.10;10.38;;;51.60;2227.20;;;;;;5095554;28;20043;-77
2022/01/11 04:12:59;;;;;;;24.88;10.80;;;51.50;2227.20;;;;;;5095325;28;20024;-75
2022/01/11 04:15:25;;;;;;;;;;;51.40;2227.20;;;;;;5094619;28;20093;-77
2022/01/11 04:17:50;;;;;;;25.30;10.52;;;51.40;2227.20;;;;;;5095567;28;20427;-75
2022/01/11 04:20:19;;;;;;;;;;;51.40;2227.20;;;;;;5095747;28;20027;-77
2022/01/11 04:22:46;;;;;;;24.00;11.75;;;51.20;2227.20;;;;;;5095529;28;19904;-78
2022/01/11 04:25:12;;;;;;;24.23;11.50;;;51.20;2227.20;;;;;;5095430;28;20022;-78
2022/01/11 04:27:38;;;;;;;27.55;13.32;;;51.30;2227.20;;;;;;5094199;28;20043;-78
2022/01/11 04:30:05;;;;;;;27.70;12.70;;;51.30;2227.20;;;;;;5095428;28;20024;-75
2022/01/11 04:32:31;;;;;;;22.30;11.00;;;51.40;2227.20;;;;;;5095203;28;20024;-75
2022/01/11 04:34:57;;;;;;;24.15;12.55;;;51.20;2227.20;;;;;;5094915;28;20016;-74
2022/01/11 04:37:23;;;;;;;;;;;51.30;2227.20;;;;;;5095556;28;20021;-78
2022/01/11 04:39:49;;;;;;;25.15;11.48;;;51.40;2227.20;;;;;;5095124;28;20347;-75
2022/01/11 04:42:14;;;;;;;;;;;51.40;2227.20;;;;;;5095181;28;20716;-75
2022/01/11 04:44:40;;;;;;;24.95;10.52;;;51.30;2227.20;;;;;;5092360;28;19948;-78
2022/01/11 04:47:06;;;;;;;;;;;51.30;2227.20;;;;;;5095257;28;20032;-78
2022/01/11 04:49:32;;;;;;;29.70;12.98;;;51.60;2227.20;;;;;;5094608;28;20283;-78
2022/01/11 04:51:57;;;;;;;;;;;51.50;2227.20;;;;;;5094774;28;20024;-78
2022/01/11 04:54:23;;;;;;;22.85;11.55;;;51.50;2227.20;;;;;;5090626;28;19904;-77
2022/01/11 04:56:49;;;;;;;25.25;11.90;;;51.50;2227.20;;;;;;5087476;28;20020;-78
2022/01/11 04:59:14;;;;;;;;;;;51.40;2227.20;;;;;;5093835;28;20036;-76
2022/01/11 05:01:40;;;;;;;23.60;12.52;;;51.40;2227.20;;;;;;5093633;28;19998;-78
2022/01/11 05:04:07;;;;;;;24.42;12.48;;;51.40;2227.20;;;;;;5092878;28;20154;-75
2022/01/11 05:06:32;;;;;;;;;;;51.30;2227.20;;;;;;5094629;28;20044;-77
2022/01/11 05:08:58;;;;;;;22.75;11.32;;;51.50;2227.20;;;;;;5093361;28;19908;-78
2022/01/11 05:11:25;;;;;;;;;;;51.30;2227.20;;;;;;5087412;28;20070;-77
2022/01/11 05:13:50;;;;;;;18.33;8.68;;;51.30;2227.20;;;;;;5093069;28;19903;-75
2022/01/11 05:16:16;;;;;;;;;;;51.20;2227.20;;;;;;5094512;28;20832;-77
2022/01/11 05:18:42;;;;;;;28.75;10.85;;;26.50;2201.60;;;;;;5094604;28;19912;-78
2022/01/11 05:21:08;;;;;;;;;;;26.50;2201.60;;;;;;5094878;28;20043;-79
2022/01/11 05:23:34;;;;;;;27.30;11.48;;;26.40;2201.60;;;;;;5093201;28;19955;-75
2022/01/11 05:26:00;;;;;;;;;;;26.50;2201.60;;;;;;5094495;28;20053;-78
2022/01/11 05:28:26;;;;;;;27.17;13.27;;;26.50;2201.60;;;;;;5093067;28;19912;-75
2022/01/11 05:30:52;;;;;;;25.77;11.50;;;51.30;2227.20;;;;;;5094089;28;20032;-75
2022/01/11 05:33:18;;;;;;;22.98;11.63;;;51.20;2227.20;;;;;;5094032;28;20036;-77
2022/01/11 05:35:43;;;;;;;;;;;51.30;2227.20;;;;;;5094279;28;20145;-75
2022/01/11 05:38:09;;;;;;;28.58;11.57;;;51.20;2227.20;;;;;;5094059;28;19912;-78
2022/01/11 05:40:35;;;;;;;;;;;51.20;2227.20;;;;;;5093274;28;20372;-76
2022/01/11 05:43:01;;;;;;;23.15;11.45;;;26.50;2201.60;;;;;;5093866;28;19911;-77
2022/01/11 05:45:26;;;;;;;31.00;11.73;;;51.30;2227.20;;;;;;5093895;28;20024;-76
2022/01/11 05:47:52;;;;;;;24.60;11.73;;;51.30;2227.20;;;;;;5093906;28;20361;-79
2022/01/11 05:50:19;;;;;;;;;;;51.40;2227.20;;;;;;5092940;28;20585;-79
2022/01/11 05:52:44;;;;;;;26.47;11.87;;;51.30;2227.20;;;;;;5087210;28;19904;-74
2022/01/11 05:55:10;;;;;;;;;;;51.20;2227.20;;;;;;5092807;28;20024;-78
2022/01/11 05:57:36;;;;;;;25.02;12.90;;;51.20;2227.20;;;;;;5092610;28;19911;-76
2022/01/11 06:00:08;;;;;;;31.67;14.32;;;51.30;2227.20;;;;;;5092658;28;20016;-78
2022/01/11 06:02:33;;;;;;;24.10;11.20;;;51.30;2227.20;;;;;;5093605;28;20103;-78
2022/01/11 06:04:59;;;;;;;26.25;12.32;;;26.40;2201.60;;;;;;5093279;28;20112;-75
2022/01/11 06:07:24;;;;;;;;;;;26.50;2201.60;;;;;;5091221;28;20070;-75
2022/01/11 06:09:50;;;;;;;23.98;11.18;;;51.20;2227.20;;;;;;5093615;28;19991;-78
2022/01/11 06:12:16;;;;;;;;;;;51.30;2227.20;;;;;;5093931;28;20028;-75
2022/01/11 06:14:42;;;;;;;21.25;10.98;;;51.20;2227.20;;;;;;5092842;28;19908;-78
2022/01/11 06:17:07;;;;;;;;;;;26.40;2201.60;;;;;;5092333;28;20032;-76
2022/01/11 06:19:34;;;;;;;23.10;10.93;;;26.50;2201.60;;;;;;5093468;28;19915;-78
2022/01/11 06:22:00;;;;;;;27.20;11.60;;;26.50;2201.60;;;;;;5093354;28;20023;-78
2022/01/11 06:24:25;;;;;;;;;;;26.40;2201.60;;;;;;5092583;28;20032;-75
2022/01/11 06:26:51;;;;;;;28.77;10.40;;;26.50;2201.60;;;;;;5093285;28;19919;-78
2022/01/11 06:29:17;;;;;;;;;;;51.20;2227.20;;;;;;5093878;28;20113;-78
2022/01/11 06:31:43;;;;;;;26.23;10.50;;;26.50;2201.60;;;;;;5093470;28;19911;-78
2022/01/11 06:34:10;;;;;;;;;;;26.50;2201.60;;;;;;5092512;28;20440;-78
2022/01/11 06:36:36;;;;;;;31.23;11.00;;;26.50;2201.60;;;;;;5093434;28;19908;-79
2022/01/11 06:39:02;;;;;;;;;;;51.20;2227.20;;;;;;5093937;28;20054;-79
2022/01/11 06:41:28;;;;;;;33.05;12.88;;;26.40;2201.60;;;;;;5093110;28;19907;-78
2022/01/11 06:43:54;;;;;;;;;;;26.20;2201.60;;;;;;5089790;28;20220;-78
2022/01/11 06:46:22;;;;;;;29.13;11.38;;;26.40;2201.60;;;;;;5093076;28;19911;-78
2022/01/11 06:48:48;;;;;;;28.40;11.65;;;26.50;2201.60;;;;;;5093320;28;20028;-76
2022/01/11 06:51:14;;;;;;;;;;;26.40;2201.60;;;;;;5092057;28;20039;-78
2022/01/11 06:53:40;;;;;;;22.90;10.45;;;26.20;2201.60;;;;;;5091823;28;20290;-78
2022/01/11 06:56:05;;;;;;;;;;;26.30;2201.60;;;;;;5093358;28;20016;-75
2022/01/11 06:58:31;;;;;;;24.52;11.45;;;26.20;2201.60;;;;;;5093015;28;19911;-77
2022/01/11 07:00:56;;;;;;;;;;;26.30;2201.60;;;;;;5093457;28;20027;-77
2022/01/11 07:03:22;;;;;;;23.25;10.23;;;26.50;2201.60;;;;;;5092838;28;20360;-76
2022/01/11 07:05:48;;;;;;;;;;;26.50;2201.60;;;;;;5093513;28;20044;-75
2022/01/11 07:08:14;;;;;;;22.27;10.13;;;26.40;2201.60;;;;;;5096569;28;19924;-75
2022/01/11 07:10:39;;;;;;;;;;;26.40;2201.60;;;;;;5095789;28;20031;-77
2022/01/11 07:13:05;;;;;;;23.73;10.95;;;26.30;2201.60;;;;;;5096578;28;19904;-75
2022/01/11 07:15:31;;;;;;;;;;;26.50;2201.60;;;;;;5097077;28;20443;-77
2022/01/11 07:17:57;;;;;;;27.75;12.20;;;51.30;2227.20;;;;;;5096451;28;20303;-76
2022/01/11 07:20:22;;;;;;;;;;;26.40;2201.60;;;;;;5096869;28;20024;-77
2022/01/11 07:22:49;;;;;;;21.10;10.68;;;26.50;2201.60;;;;;;5094905;28;20333;-76
2022/01/11 07:25:15;;;;;;;25.80;12.20;;;26.50;2201.60;;;;;;5096037;28;20021;-74
2022/01/11 07:27:41;;;;;;;25.77;13.05;;;51.20;2227.20;;;;;;5096308;28;20032;-77
2022/01/11 07:30:07;;;;;;;;;;;51.40;2227.20;;;;;;5096580;28;20012;-74
2022/01/11 07:32:35;;;;;;;21.73;9.57;;;51.40;2227.20;;;;;;5094900;28;20431;-77
2022/01/11 07:35:02;;;;;;;23.05;10.43;;;51.40;2227.20;;;;;;5094975;28;20506;-78
2022/01/11 07:37:27;;;;;;;26.50;12.15;;;51.30;2227.20;;;;;;5094915;28;20028;-77
2022/01/11 07:39:53;;;;;;;22.60;10.70;;;26.50;2201.60;;;;;;5095147;28;20456;-74
2022/01/11 07:42:19;;;;;;;;;;;51.20;2227.20;;;;;;5097047;28;20108;-74
2022/01/11 07:44:46;;;;;;;23.13;10.27;;;26.50;2201.60;;;;;;5096304;28;20343;-74
2022/01/11 07:47:12;;;;;;;26.35;11.52;;;26.30;2201.60;;;;;;5096467;28;20111;-75
2022/01/11 07:49:37;;;;;;;;;;;26.20;2201.60;;;;;;5095199;28;20114;-74
2022/01/11 07:52:03;;;;;;;22.38;8.52;;;26.20;2201.60;;;;;;5096250;28;19908;-77
2022/01/11 07:54:29;;;;;;;;;;;26.20;2201.60;;;;;;5096524;28;20055;-77
2022/01/11 07:56:54;;;;;;;23.40;10.95;;;26.30;2201.60;;;;;;5096048;28;20272;-76
2022/01/11 07:59:20;;;;;;;;;;;26.30;2201.60;;;;;;5096341;28;20028;-77
2022/01/11 08:01:46;;;;;;;32.40;14.27;;;26.40;2201.60;;;;;;5099751;28;19950;-80
2022/01/11 08:04:12;;;;;;;;;;;26.20;2201.60;;;;;;5100949;28;20387;-75
2022/01/11 08:06:38;;;;;;;26.60;11.98;;;26.30;2201.60;;;;;;5102159;28;19941;-78
2022/01/11 08:09:03;;;;;;;;;;;26.20;2201.60;;;;;;5095289;28;20115;-76
2022/01/11 08:11:29;;;;;;;29.50;12.25;;;26.20;2201.60;;;;;;5111878;28;20279;-77
2022/01/11 08:13:55;;;;;;;;;;;26.30;2201.60;;;;;;5115420;28;20030;-76
2022/01/11 08:16:22;;;;;;;28.48;12.73;;;26.40;2201.60;;;;;;5115593;28;19904;-76
2022/01/11 08:18:48;;;;;;;23.13;11.90;;;26.30;2201.60;;;;;;5107701;28;20047;-79
2022/01/11 08:21:13;;;;;;;;;;;26.40;2201.60;;;;;;5095807;28;20013;-79
2022/01/11 08:23:39;;;;;;;27.13;13.13;;;26.50;2201.60;;;;;;5095576;28;19911;-77
2022/01/11 08:26:05;;;;;;;;;;;51.20;2227.20;;;;;;5094291;28;20016;-78
2022/01/11 08:28:32;;;;;;;30.38;14.65;;;26.40;2201.60;;;;;;5095237;28;19919;-78
2022/01/11 08:30:58;;;;;;;31.45;12.77;;;26.30;2201.60;;;;;;5094018;28;20020;-76
2022/01/11 08:33:24;;;;;;;29.95;13.90;;;26.50;2201.60;;;;;;5093519;28;20051;-78
2022/01/11 08:35:50;;;;;;;;;;;51.20;2227.20;;;;;;5101948;28;20020;-75
2022/01/11 08:38:16;;;;;;;25.20;11.65;;;26.50;2201.60;;;;;;5115598;28;20461;-74
2022/01/11 08:40:42;;;;;;;;;;;51.20;2227.20;;;;;;5114563;28;20048;-76
2022/01/11 08:43:08;;;;;;;28.35;11.90;;;26.40;2201.60;;;;;;5115486;28;19904;-74
2022/01/11 08:45:35;;;;;;;29.70;12.52;;;26.10;2201.60;;;;;;5114058;28;20106;-74
2022/01/11 08:48:01;;;;;;;30.48;12.80;;;26.30;2201.60;;;;;;5093316;28;20138;-76
2022/01/11 08:50:27;;;;;;;23.67;11.52;;;26.20;2201.60;;;;;;5094475;28;20073;-77
2022/01/11 08:52:52;;;;;;;;;;;26.30;2201.60;;;;;;5094952;28;20095;-76
2022/01/11 08:55:19;;;;;;;31.58;13.63;;;26.40;2201.60;;;;;;5094068;28;19916;-74
2022/01/11 08:57:45;;;;;;;28.15;11.77;;;26.50;2201.60;;;;;;5092707;28;20035;-75
2022/01/11 09:00:16;;;;;;;;;;;26.50;2201.60;;;;;;5093929;28;20379;-78
2022/01/11 09:02:46;;;;;;;34.28;14.13;;;26.50;2201.60;;;;;;5094747;28;20385;-74
2022/01/11 09:05:13;;;;;;;24.38;13.00;;;26.50;2201.60;;;;;;5093780;28;20028;-77
2022/01/11 09:07:39;;;;;;;24.50;11.75;;;26.40;2201.60;;;;;;5093957;28;20078;-77
2022/01/11 09:10:05;;;;;;;;;;;26.30;2201.60;;;;;;5101154;28;20024;-74
2022/01/11 09:12:32;;;;;;;28.77;11.82;;;26.50;2201.60;;;;;;5113436;28;19939;-76
2022/01/11 09:14:57;;;;;;;23.42;10.15;;;26.40;2201.60;;;;;;5115219;28;20023;-75
2022/01/11 09:17:23;;;;;;;;;;;26.30;2201.60;;;;;;5094856;28;20069;-75
2022/01/11 09:19:49;;;;;;;29.45;11.00;;;26.50;2201.60;;;;;;5092886;28;19904;-76
2022/01/11 09:22:14;;;;;;;;;;;26.40;2201.60;;;;;;5091780;28;20034;-77
2022/01/11 09:24:40;;;;;;;29.65;10.82;;;26.30;2201.60;;;;;;5092373;28;19908;-75
2022/01/11 09:27:06;;;;;;;31.88;12.65;;;26.40;2201.60;;;;;;5093664;28;20460;-76
2022/01/11 09:29:32;;;;;;;;;;;26.30;2201.60;;;;;;5092200;28;20110;-77
2022/01/11 09:32:00;;;;;;;25.33;10.80;;;26.40;2201.60;;;;;;5092242;28;19930;-75
2022/01/11 09:34:27;;;;;;;28.70;12.80;;;26.20;2201.60;;;;;;5094068;28;20024;-74
2022/01/11 09:36:52;;;;;;;;;;;26.20;2201.60;;;;;;5094433;28;20088;-74
2022/01/11 09:39:19;;;;;;;26.27;11.40;;;26.30;2201.60;;;;;;5093952;28;20007;-75
2022/01/11 09:41:45;;;;;;;32.63;10.80;;;26.20;2201.60;;;;;;5093768;28;20024;-74
2022/01/11 09:44:11;;;;;;;;;;;26.30;2201.60;;;;;;5092680;28;20538;-74
2022/01/11 09:46:38;;;;;;;37.10;14.77;;;26.50;2201.60;;;;;;5092979;28;19999;-77
2022/01/11 09:49:04;;;;;;;39.47;14.90;;;26.50;2201.60;;;;;;5094159;28;20325;-78
2022/01/11 09:51:35;;;;;;;40.85;15.10;;;26.40;2201.60;;;;;;5092509;28;20479;-73
2022/01/11 09:54:02;;;;;;;32.63;13.95;;;26.50;2201.60;;;;;;5092002;28;20039;-76
2022/01/11 09:56:28;;;;;;;37.65;13.80;;;26.40;2201.60;;;;;;5092356;28;20055;-74
2022/01/11 09:58:53;;;;;;;;;;;26.50;2201.60;;;;;;5093256;28;20047;-76
2022/01/11 10:01:19;;;;;;;34.55;13.13;;;26.50;2201.60;;;;;;5093796;28;19904;-74
2022/01/11 10:04:06;;;;;;;;;;;26.50;2201.60;;;;;;5094050;28;20054;-76
2022/01/11 10:06:37;;;;;;;25.35;11.55;;;26.50;2201.60;;;;;;5093237;28;19961;-76
2022/01/11 10:09:18;;;;;;;32.30;15.63;;;26.50;2201.60;;;;;;5092296;28;20131;-78
2022/01/11 10:11:46;;;;;;;29.83;13.95;;;51.20;2227.20;;;;;;5073231;28;20016;-75
2022/01/11 10:14:21;;;;;;;23.42;12.90;;;26.50;2201.60;;;;;;5072140;28;20141;-74
2022/01/11 10:16:48;;;;;;;28.70;13.98;;;26.30;2201.60;;;;;;5073269;28;20067;-74
2022/01/11 10:19:22;;;;;;;24.05;11.60;;;26.50;2201.60;;;;;;5073344;28;20017;-74
2022/01/11 10:21:50;;;;;;;36.55;16.73;;;26.50;2201.60;;;;;;5073438;28;20024;-77
2022/01/11 10:24:32;;;;;;;33.65;16.27;;;51.20;2227.20;;;;;;5073291;28;20016;-75
2022/01/11 10:27:28;;;;;;;43.13;19.10;;;26.50;2201.60;;;;;;5073706;28;20025;-82
2022/01/11 10:29:57;;;;;;;31.77;14.70;;;51.20;2227.20;;;;;;5072320;28;20029;-74
2022/01/11 10:32:30;;;;;;;37.78;16.42;;;51.30;2227.20;;;;;;5073245;28;20032;-78
2022/01/11 10:34:59;;;;;;;33.15;14.75;;;51.30;2227.20;;;;;;5073471;28;20410;-79
2022/01/11 10:37:35;;;;;;;20.83;10.43;;;51.30;2227.20;;;;;;5072292;28;20032;-74
2022/01/11 10:40:14;;;;;;;19.67;9.10;;;51.20;2227.20;;;;;;5074052;28;20032;-80
2022/01/11 10:42:46;;;;;;;21.38;11.73;;;26.20;2201.60;;;;;;5077414;28;20024;-74
2022/01/11 10:45:24;;;;;;;27.42;13.35;;;26.40;2201.60;;;;;;5085205;28;20375;-75
2022/01/11 10:47:53;;;;;;;31.35;12.80;;;26.30;2201.60;;;;;;5090076;28;20031;-78
2022/01/11 10:50:34;;;;;;;19.88;10.93;;;26.40;2201.60;;;;;;5096277;28;20111;-80
2022/01/11 10:53:03;;;;;;;23.38;11.45;;;26.30;2201.60;;;;;;5096222;28;20093;-74
2022/01/11 10:55:31;;;;;;;25.65;10.55;;;26.20;2201.60;;;;;;5096558;28;20031;-79
2022/01/11 10:58:00;;;;;;;25.40;10.85;;;26.30;2201.60;;;;;;5097528;28;20095;-75
2022/01/11 11:00:35;;;;;;;23.83;11.13;;;26.30;2201.60;;;;;;5097352;28;20016;-77
2022/01/11 11:03:12;;;;;;;25.55;11.13;;;26.30;2201.60;;;;;;5096862;28;20016;-83
2022/01/11 11:05:45;;;;;;;21.75;9.68;;;26.30;2201.60;;;;;;5094671;28;20093;-82
2022/01/11 11:08:13;;;;;;;24.40;10.20;;;26.20;2201.60;;;;;;5096016;28;20123;-78
2022/01/11 11:11:12;;;;;;;26.45;11.88;;;26.10;2201.60;;;;;;5099488;28;20017;-77
2022/01/11 11:13:40;;;;;;;28.45;11.98;;;26.20;2201.60;;;;;;5004732;28;20037;-79
2022/01/11 11:16:09;;;;;;;22.67;10.90;;;26.20;2201.60;;;;;;4987524;28;20128;-75
2022/01/11 11:18:48;;;;;;;22.35;10.98;;;26.10;2201.60;;;;;;4995771;28;20433;-74
2022/01/11 11:21:36;;;;;;;23.35;10.93;;;26.10;2201.60;;;;;;4995136;28;20088;-74
2022/01/11 11:24:14;;;;;;;29.33;12.52;;;26.10;2201.60;;;;;;5001269;28;20034;-74
2022/01/11 11:26:46;;;;;;;27.83;13.57;;;26.30;2201.60;;;;;;5003079;28;20026;-74
2022/01/11 11:29:13;;;;;;;28.83;12.38;;;51.20;2227.20;;;;;;4982071;28;20111;-74
2022/01/11 11:31:39;;;;;;;25.33;11.90;;;26.40;2201.60;;;;;;4978500;28;20028;-74
2022/01/11 11:34:08;;;;;;;;;;;26.40;2201.60;;;;;;4984528;28;20038;-76
2022/01/11 11:36:35;;;;;;;32.78;11.23;;;26.30;2201.60;;;;;;5003776;28;20012;-74
2022/01/11 11:39:06;;;;;;;29.70;13.57;;;26.40;2201.60;;;;;;4988640;28;20557;-75
2022/01/11 11:41:37;;;;;;;30.83;12.20;;;26.40;2201.60;;;;;;5000638;28;20506;-74
2022/01/11 11:44:07;;;;;;;35.22;13.70;;;26.40;2201.60;;;;;;5005460;28;20019;-74
2022/01/11 11:46:55;;;;;;;27.90;12.20;;;26.30;2201.60;;;;;;5007179;28;20056;-75
2022/01/11 11:49:51;;;;;;;31.23;13.18;;;26.40;2201.60;;;;;;5045974;28;20048;-76
2022/01/11 11:52:29;;;;;;;20.25;10.45;;;26.40;2201.60;;;;;;5091421;28;20034;-74
2022/01/11 11:54:58;;;;;;;29.50;12.68;;;26.50;2201.60;;;;;;5092994;28;20012;-74
2022/01/11 11:57:27;;;;;;;26.55;12.20;;;51.20;2227.20;;;;;;5094085;28;20499;-75
2022/01/11 11:59:56;;;;;;;26.27;11.50;;;51.30;2227.20;;;;;;5094303;28;20023;-74
2022/01/11 12:02:39;;;;;;;24.00;11.32;;;51.20;2227.20;;;;;;5093795;28;20020;-75
2022/01/11 12:05:09;;;;;;;27.15;11.45;;;51.30;2227.20;;;;;;5092995;28;20024;-75
2022/01/11 12:07:45;;;;;;;30.33;13.65;;;51.20;2227.20;;;;;;5094577;28;20050;-75
2022/01/11 12:10:19;;;;;;;44.97;16.73;;;51.20;2227.20;;;;;;5092706;28;20102;-74
2022/01/11 12:12:52;;;;;;;43.08;16.60;;;26.50;2201.60;;;;;;5095336;28;20483;-76
2022/01/11 12:15:34;;;;;;;29.80;12.60;;;26.40;2201.60;;;;;;5092500;28;20455;-75
2022/01/11 12:17:59;;;;;;;34.72;14.13;;;26.50;2201.60;;;;;;5094630;28;20031;-74
2022/01/11 12:20:45;;;;;;;;;;;51.30;2227.20;;;;;;5094357;28;20020;-74
2022/01/11 12:23:20;;;;;;;29.83;10.70;;;26.50;2201.60;;;;;;5085456;28;19904;-76
2022/01/11 12:25:53;;;;;;;27.58;11.35;;;26.40;2201.60;;;;;;5092309;28;20034;-77
2022/01/11 12:28:21;;;;;;;30.73;14.10;;;51.40;2227.20;;;;;;5094810;28;20028;-74
2022/01/11 12:30:47;;;;;;;28.65;12.15;;;51.20;2227.20;;;;;;5091176;28;20382;-77
2022/01/11 12:33:17;;;;;;;30.02;12.88;;;51.20;2227.20;;;;;;5094885;28;20020;-73
2022/01/11 12:35:53;;;;;;;35.60;14.50;;;51.30;2227.20;;;;;;5094796;28;20030;-74
2022/01/11 12:38:20;;;;;;;32.20;12.90;;;51.20;2227.20;;;;;;5094745;28;20094;-74